Time;durP1;ratioP1;P1;durP2;ratioP2;P2;SDS_P1;SDS_P2;PMS_P1;PMS_P2;Temp;Humidity;BMP_temperature;BMP_pressure;BME280_temperature;BME280_humidity;BME280_pressure;Samples;Min_cycle;Max_cycle;Signal;HPM_P1;HPM_P2
2021/03/13 00:01:37;;;;;;;160.90;43.20;;;;;;;;;;8322782;28;20074;-68
2021/03/13 00:05:46;;;;;;;159.45;43.28;;;;;;;;;;8322294;28;20361;-68
2021/03/13 00:09:51;;;;;;;;;;;;;;;;;;8306432;28;20470;-70
2021/03/13 00:13:55;;;;;;;96.80;28.17;;;;;;;;;;8322614;28;20254;-68
2021/03/13 00:18:01;;;;;;;142.40;37.00;;;;;;;;;;8323419;28;20369;-69
2021/03/13 00:22:06;;;;;;;147.45;37.80;;;;;;;;;;8323057;28;20473;-68
2021/03/13 00:26:10;;;;;;;130.32;35.55;;;;;;;;;;8322018;28;20417;-69
2021/03/13 00:30:17;;;;;;;73.40;25.88;;;;;;;;;;8323642;28;20485;-68
2021/03/13 00:34:21;;;;;;;161.88;42.47;;;;;;;;;;8325344;28;20366;-68
2021/03/13 00:38:26;;;;;;;243.45;55.83;;;;;;;;;;8328312;28;20366;-68
2021/03/13 00:42:31;;;;;;;104.15;30.15;;;;;;;;;;8328562;28;20401;-68
2021/03/13 00:46:36;;;;;;;201.90;51.80;;;;;;;;;;8327561;28;20477;-69
2021/03/13 00:50:44;;;;;;;137.98;39.83;;;;;;;;;;8328082;28;20470;-67
2021/03/13 00:54:49;;;;;;;79.47;25.70;;;;;;;;;;8328713;28;20473;-69
2021/03/13 00:58:54;;;;;;;68.32;22.08;;;;;;;;;;8325541;28;20379;-68
2021/03/13 01:02:59;;;;;;;61.15;20.88;;;;;;;;;;8323364;28;20374;-68
2021/03/13 01:07:06;;;;;;;71.13;23.42;;;;;;;;;;8293651;28;20401;-68
2021/03/13 01:11:10;;;;;;;56.40;19.48;;;;;;;;;;8292057;28;20462;-68
2021/03/13 01:15:23;;;;;;;52.90;18.77;;;;;;;;;;8277250;28;20447;-68
2021/03/13 01:19:29;;;;;;;;;;;;;;;;;;8292750;28;20439;-68
2021/03/13 01:23:34;;;;;;;56.92;17.70;;;;;;;;;;8292461;28;20350;-69
2021/03/13 01:27:39;;;;;;;84.22;25.95;;;;;;;;;;8293060;28;20478;-68
2021/03/13 01:31:44;;;;;;;108.93;32.83;;;;;;;;;;8294006;28;20052;-68
2021/03/13 01:35:50;;;;;;;81.68;24.67;;;;;;;;;;8292794;28;20074;-68
2021/03/13 01:39:56;;;;;;;76.30;23.92;;;;;;;;;;8293199;28;20067;-68
2021/03/13 01:44:03;;;;;;;77.88;26.95;;;;;;;;;;8293139;28;20573;-67
2021/03/13 01:48:09;;;;;;;58.97;21.27;;;;;;;;;;8289568;28;20471;-68
2021/03/13 01:52:15;;;;;;;58.33;21.83;;;;;;;;;;8292554;28;20505;-68
2021/03/13 01:56:20;;;;;;;56.38;20.48;;;;;;;;;;8291017;28;20387;-68
2021/03/13 02:00:28;;;;;;;53.92;18.15;;;;;;;;;;8275767;28;20439;-68
2021/03/13 02:04:41;;;;;;;44.90;18.70;;;;;;;;;;8290723;28;20482;-68
2021/03/13 02:09:27;;;;;;;55.45;18.40;;;;;;;;;;8291074;28;20382;-67
2021/03/13 02:13:45;;;;;;;59.85;21.40;;;;;;;;;;8306808;28;20356;-69
2021/03/13 02:18:31;;;;;;;69.97;23.65;;;;;;;;;;8325105;28;20074;-68
2021/03/13 02:22:39;;;;;;;62.00;20.40;;;;;;;;;;8311035;28;20074;-68
2021/03/13 02:27:04;;;;;;;54.90;19.05;;;;;;;;;;8324205;28;20464;-68
2021/03/13 02:31:34;;;;;;;47.15;15.75;;;;;;;;;;8316811;28;20490;-67
2021/03/13 02:35:46;;;;;;;43.80;16.00;;;;;;;;;;8322762;28;20052;-67
2021/03/13 02:39:53;;;;;;;46.38;16.83;;;;;;;;;;8308697;28;20370;-68
2021/03/13 02:44:03;;;;;;;43.22;16.42;;;;;;;;;;8324409;28;20458;-68
2021/03/13 02:48:18;;;;;;;42.28;15.45;;;;;;;;;;8308331;28;20451;-68
2021/03/13 02:52:28;;;;;;;49.58;18.30;;;;;;;;;;8322496;28;20474;-68
2021/03/13 02:56:40;;;;;;;57.17;21.58;;;;;;;;;;8306731;28;20367;-68
2021/03/13 03:00:46;;;;;;;71.13;23.13;;;;;;;;;;8306940;28;20044;-68
2021/03/13 03:04:56;;;;;;;57.22;19.20;;;;;;;;;;8307303;28;20458;-68
2021/03/13 03:09:03;;;;;;;46.97;17.92;;;;;;;;;;8305032;28;20453;-67
2021/03/13 03:13:13;;;;;;;48.13;18.77;;;;;;;;;;8306991;28;20409;-68
2021/03/13 03:17:20;;;;;;;44.95;17.02;;;;;;;;;;8321947;28;20410;-68
2021/03/13 03:21:25;;;;;;;47.83;16.95;;;;;;;;;;8305984;28;20363;-69
2021/03/13 03:25:31;;;;;;;45.70;16.80;;;;;;;;;;8323195;28;20052;-68
2021/03/13 03:29:35;;;;;;;46.00;16.75;;;;;;;;;;8325295;28;20481;-68
2021/03/13 03:33:48;;;;;;;54.20;17.10;;;;;;;;;;8322378;28;20398;-67
2021/03/13 03:38:01;;;;;;;48.53;16.63;;;;;;;;;;8322302;28;20406;-69
2021/03/13 03:42:07;;;;;;;50.08;17.25;;;;;;;;;;8322361;28;20446;-69
2021/03/13 03:46:14;;;;;;;46.70;15.38;;;;;;;;;;8305925;28;20459;-69
2021/03/13 03:50:21;;;;;;;43.05;15.35;;;;;;;;;;8321098;28;20450;-68
2021/03/13 03:54:41;;;;;;;42.85;16.30;;;;;;;;;;8320694;28;20429;-70
2021/03/13 03:58:47;;;;;;;39.35;14.70;;;;;;;;;;8323943;28;20447;-68
2021/03/13 04:02:56;;;;;;;48.85;15.55;;;;;;;;;;8320826;28;20375;-68
2021/03/13 04:07:04;;;;;;;41.53;14.57;;;;;;;;;;8321523;28;20047;-71
2021/03/13 04:11:17;;;;;;;43.05;13.95;;;;;;;;;;8328272;28;20376;-69
2021/03/13 04:15:22;;;;;;;42.28;14.20;;;;;;;;;;8327024;28;20359;-68
2021/03/13 04:19:27;;;;;;;34.60;12.93;;;;;;;;;;8326827;28;20374;-68
2021/03/13 04:23:34;;;;;;;33.70;12.13;;;;;;;;;;8330648;28;20079;-68
2021/03/13 04:27:44;;;;;;;39.53;13.20;;;;;;;;;;8330156;28;20048;-68
2021/03/13 04:31:49;;;;;;;31.02;12.55;;;;;;;;;;8327930;28;20052;-70
2021/03/13 04:35:54;;;;;;;34.03;12.55;;;;;;;;;;8326878;28;20461;-67
2021/03/13 04:39:59;;;;;;;28.35;11.15;;;;;;;;;;8328608;28;20056;-69
2021/03/13 04:44:04;;;;;;;43.60;14.20;;;;;;;;;;8328113;28;20481;-68
2021/03/13 04:48:10;;;;;;;37.55;12.60;;;;;;;;;;8310209;28;20463;-68
2021/03/13 04:52:15;;;;;;;49.47;16.27;;;;;;;;;;8309889;28;20362;-67
2021/03/13 04:56:20;;;;;;;38.88;14.32;;;;;;;;;;8325941;28;20592;-68
2021/03/13 05:00:24;;;;;;;40.20;14.75;;;;;;;;;;8327062;28;20044;-68
2021/03/13 05:04:29;;;;;;;36.22;12.82;;;;;;;;;;8326166;28;20478;-68
2021/03/13 05:08:33;;;;;;;31.00;12.40;;;;;;;;;;8328494;28;20074;-68
2021/03/13 05:12:38;;;;;;;32.92;11.95;;;;;;;;;;8326890;28;20052;-70
2021/03/13 05:16:43;;;;;;;30.33;12.65;;;;;;;;;;8325619;28;20068;-69
2021/03/13 05:20:48;;;;;;;28.48;11.60;;;;;;;;;;8308482;28;20450;-69
2021/03/13 05:24:52;;;;;;;32.67;12.00;;;;;;;;;;8327016;28;20395;-69
2021/03/13 05:28:57;;;;;;;30.77;12.02;;;;;;;;;;8327252;28;20363;-69
2021/03/13 05:33:01;;;;;;;32.47;12.02;;;;;;;;;;8326288;28;20060;-69
2021/03/13 05:37:06;;;;;;;29.38;11.80;;;;;;;;;;8326438;28;20074;-69
2021/03/13 05:41:10;;;;;;;33.70;12.27;;;;;;;;;;8326355;28;20381;-69
2021/03/13 05:45:16;;;;;;;32.17;12.70;;;;;;;;;;8326686;28;20074;-69
2021/03/13 05:49:22;;;;;;;34.42;13.55;;;;;;;;;;8325602;28;20374;-69
2021/03/13 05:53:28;;;;;;;40.17;12.77;;;;;;;;;;8324394;28;20455;-68
2021/03/13 05:57:33;;;;;;;53.13;20.33;;;;;;;;;;8324232;28;20474;-69
2021/03/13 06:01:38;;;;;;;27.30;12.73;;;;;;;;;;8326280;28;20417;-69
2021/03/13 06:06:00;;;;;;;35.75;15.95;;;;;;;;;;8324860;28;20417;-69
2021/03/13 06:10:05;;;;;;;78.53;33.22;;;;;;;;;;8307426;28;20052;-70
2021/03/13 06:14:10;;;;;;;58.53;26.83;;;;;;;;;;8323452;28;20504;-70
2021/03/13 06:18:14;;;;;;;39.35;18.23;;;;;;;;;;8325707;28;20467;-69
2021/03/13 06:22:43;;;;;;;45.30;18.23;;;;;;;;;;8323148;28;20393;-70
2021/03/13 06:26:53;;;;;;;37.50;15.55;;;;;;;;;;8325879;28;20356;-70
2021/03/13 06:31:07;;;;;;;37.83;14.82;;;;;;;;;;8325481;28;20401;-70
2021/03/13 06:35:38;;;;;;;31.98;12.68;;;;;;;;;;8324456;28;20352;-71
2021/03/13 06:39:45;;;;;;;26.85;11.45;;;;;;;;;;8306112;28;20362;-70
2021/03/13 06:43:56;;;;;;;26.50;10.60;;;;;;;;;;8323724;28;20359;-71
2021/03/13 06:48:01;;;;;;;26.70;10.55;;;;;;;;;;8324746;28;20368;-70
2021/03/13 06:52:05;;;;;;;24.23;12.73;;;;;;;;;;8322934;28;20063;-70
2021/03/13 06:56:14;;;;;;;31.58;12.27;;;;;;;;;;8324419;28;20434;-71
2021/03/13 07:00:28;;;;;;;18.50;8.35;;;;;;;;;;8306747;28;20366;-71
2021/03/13 07:04:44;;;;;;;20.73;8.95;;;;;;;;;;8321327;28;20485;-71
2021/03/13 07:08:55;;;;;;;23.33;10.30;;;;;;;;;;8321383;28;20374;-72
2021/03/13 07:12:58;;;;;;;40.47;13.35;;;;;;;;;;8321662;28;20367;-73
2021/03/13 07:17:02;;;;;;;39.33;16.85;;;;;;;;;;8322443;28;20435;-73
2021/03/13 07:21:08;;;;;;;24.40;10.88;;;;;;;;;;8321530;28;20055;-74
2021/03/13 07:25:14;;;;;;;23.15;9.77;;;;;;;;;;8322082;28;20359;-74
2021/03/13 07:29:22;;;;;;;19.08;8.68;;;;;;;;;;8306158;28;20405;-73
2021/03/13 07:33:28;;;;;;;21.25;7.78;;;;;;;;;;8323362;28;20417;-74
2021/03/13 07:37:35;;;;;;;19.63;7.55;;;;;;;;;;8322921;28;20481;-75
2021/03/13 07:41:49;;;;;;;22.02;8.25;;;;;;;;;;8323964;28;20382;-75
2021/03/13 07:45:54;;;;;;;28.55;9.90;;;;;;;;;;8332282;28;20476;-75
2021/03/13 07:50:02;;;;;;;17.75;7.05;;;;;;;;;;8331108;28;20047;-75
2021/03/13 07:54:09;;;;;;;22.58;9.40;;;;;;;;;;8328994;28;20382;-75
2021/03/13 07:58:13;;;;;;;14.10;5.13;;;;;;;;;;8328758;28;20463;-74
2021/03/13 08:02:30;;;;;;;15.50;7.25;;;;;;;;;;8328659;28;20386;-74
2021/03/13 08:06:59;;;;;;;11.32;5.15;;;;;;;;;;8329983;28;20355;-74
2021/03/13 08:11:05;;;;;;;9.70;4.28;;;;;;;;;;8329625;28;20484;-76
2021/03/13 08:15:33;;;;;;;7.40;3.35;;;;;;;;;;8328892;28;20339;-74
2021/03/13 08:19:44;;;;;;;13.93;5.22;;;;;;;;;;8329661;28;20401;-74
2021/03/13 08:24:00;;;;;;;14.85;6.05;;;;;;;;;;8329067;28;20474;-74
2021/03/13 08:28:04;;;;;;;18.45;8.05;;;;;;;;;;8330750;28;20375;-77
2021/03/13 08:32:09;;;;;;;14.98;6.63;;;;;;;;;;8330360;28;20459;-74
2021/03/13 08:36:20;;;;;;;18.65;6.65;;;;;;;;;;8327603;28;20498;-74
2021/03/13 08:40:27;;;;;;;8.73;3.67;;;;;;;;;;8328773;28;20331;-73
2021/03/13 08:44:38;;;;;;;14.90;5.53;;;;;;;;;;8327229;28;20355;-75
2021/03/13 08:49:00;;;;;;;10.43;3.88;;;;;;;;;;8328308;28;20455;-73
2021/03/13 08:53:36;;;;;;;26.30;11.32;;;;;;;;;;8328829;28;20483;-74
2021/03/13 08:57:44;;;;;;;16.90;7.82;;;;;;;;;;8328212;28;20464;-74
2021/03/13 09:02:13;;;;;;;12.40;6.82;;;;;;;;;;8328044;28;20052;-73
2021/03/13 09:06:22;;;;;;;10.55;3.67;;;;;;;;;;8327729;28;20454;-72
2021/03/13 09:10:26;;;;;;;13.80;4.07;;;;;;;;;;8326268;28;20402;-73
2021/03/13 09:14:30;;;;;;;10.57;4.00;;;;;;;;;;8326521;28;20634;-73
2021/03/13 09:18:35;;;;;;;6.22;2.33;;;;;;;;;;8327000;28;20368;-73
2021/03/13 09:22:46;;;;;;;9.85;3.97;;;;;;;;;;8325564;28;20528;-74
2021/03/13 09:27:02;;;;;;;6.25;2.05;;;;;;;;;;8326428;28;20374;-73
2021/03/13 09:31:12;;;;;;;13.75;6.75;;;;;;;;;;8327245;28;20515;-73
2021/03/13 09:35:21;;;;;;;30.20;15.25;;;;;;;;;;8327816;28;20355;-72
2021/03/13 09:39:28;;;;;;;34.38;13.73;;;;;;;;;;8326640;28;20075;-73
2021/03/13 09:43:40;;;;;;;15.35;6.75;;;;;;;;;;8325059;28;20454;-72
2021/03/13 09:47:48;;;;;;;21.77;8.85;;;;;;;;;;8325955;28;20603;-73
2021/03/13 09:51:54;;;;;;;12.73;5.75;;;;;;;;;;8325256;28;20435;-74
2021/03/13 09:56:00;;;;;;;8.18;3.70;;;;;;;;;;8325143;28;20371;-73
2021/03/13 10:00:16;;;;;;;19.38;4.03;;;;;;;;;;8325054;28;20453;-72
2021/03/13 10:04:21;;;;;;;14.73;5.30;;;;;;;;;;8323995;28;20485;-72
2021/03/13 10:08:36;;;;;;;9.52;4.38;;;;;;;;;;8323574;28;20466;-73
2021/03/13 10:12:50;;;;;;;15.68;6.30;;;;;;;;;;8324054;28;20382;-71
2021/03/13 10:17:01;;;;;;;9.07;4.03;;;;;;;;;;8322787;28;20463;-74
2021/03/13 10:21:07;;;;;;;15.15;5.13;;;;;;;;;;8325553;28;20051;-72
2021/03/13 10:25:14;;;;;;;;;;;;;;;;;;8325040;28;20351;-72
2021/03/13 10:29:25;;;;;;;11.25;4.50;;;;;;;;;;8324943;28;20266;-72
2021/03/13 10:33:32;;;;;;;14.90;6.00;;;;;;;;;;8323512;28;20390;-72
2021/03/13 10:37:46;;;;;;;18.40;5.35;;;;;;;;;;8323306;28;20351;-72
2021/03/13 10:41:55;;;;;;;5.97;2.42;;;;;;;;;;8323938;28;20066;-73
2021/03/13 10:46:03;;;;;;;13.48;5.75;;;;;;;;;;8323833;28;20060;-72
2021/03/13 10:50:09;;;;;;;15.20;5.93;;;;;;;;;;8323715;28;20461;-72
2021/03/13 10:54:28;;;;;;;19.55;8.07;;;;;;;;;;8322788;28;20416;-72
2021/03/13 10:58:35;;;;;;;14.43;5.75;;;;;;;;;;8323697;28;20056;-72
2021/03/13 11:02:39;;;;;;;12.25;4.22;;;;;;;;;;8320928;28;20474;-72
2021/03/13 11:06:57;;;;;;;5.03;1.80;;;;;;;;;;8322378;28;20562;-72
2021/03/13 11:11:01;;;;;;;29.13;10.40;;;;;;;;;;8320840;28;20443;-72
2021/03/13 11:15:06;;;;;;;14.93;5.95;;;;;;;;;;8323345;28;20477;-73
2021/03/13 11:19:11;;;;;;;8.10;2.97;;;;;;;;;;8322526;28;20467;-72
2021/03/13 11:23:16;;;;;;;9.63;3.20;;;;;;;;;;8323905;28;20382;-70
2021/03/13 11:27:20;;;;;;;13.43;5.15;;;;;;;;;;8322836;28;20486;-72
2021/03/13 11:31:25;;;;;;;8.68;3.47;;;;;;;;;;8323317;28;20115;-72
2021/03/13 11:35:30;;;;;;;8.95;3.03;;;;;;;;;;8324031;28;20505;-72
2021/03/13 11:39:35;;;;;;;8.68;3.08;;;;;;;;;;8322363;28;20074;-72
2021/03/13 11:43:42;;;;;;;16.77;5.30;;;;;;;;;;8322857;28;20048;-72
2021/03/13 11:47:46;;;;;;;29.27;10.30;;;;;;;;;;8322922;28;20370;-72
2021/03/13 11:51:51;;;;;;;11.82;5.03;;;;;;;;;;8324024;28;20131;-72
2021/03/13 11:55:56;;;;;;;22.80;8.43;;;;;;;;;;8323416;28;20133;-72
2021/03/13 12:00:01;;;;;;;10.90;3.80;;;;;;;;;;8323174;28;20477;-72
2021/03/13 12:04:06;;;;;;;22.38;8.88;;;;;;;;;;8324414;28;20348;-71
2021/03/13 12:08:11;;;;;;;15.23;5.88;;;;;;;;;;8322617;28;20470;-71
2021/03/13 12:12:16;;;;;;;13.00;6.20;;;;;;;;;;8322447;28;20382;-71
2021/03/13 12:16:21;;;;;;;13.68;3.78;;;;;;;;;;8323517;28;20363;-72
2021/03/13 12:20:27;;;;;;;13.13;6.57;;;;;;;;;;8322765;28;20485;-72
2021/03/13 12:24:32;;;;;;;12.15;4.30;;;;;;;;;;8320976;28;20374;-71
2021/03/13 12:28:37;;;;;;;8.07;4.22;;;;;;;;;;8323708;28;20409;-71
2021/03/13 12:32:45;;;;;;;;;;;;;;;;;;8329437;28;20363;-72
2021/03/13 12:36:50;;;;;;;22.15;8.20;;;;;;;;;;8326993;28;20350;-72
2021/03/13 12:40:56;;;;;;;26.25;10.55;;;;;;;;;;8326299;28;20386;-72
2021/03/13 12:45:03;;;;;;;16.48;8.05;;;;;;;;;;8328436;28;20388;-72
2021/03/13 12:49:09;;;;;;;10.17;4.33;;;;;;;;;;8328131;28;20079;-71
2021/03/13 12:53:16;;;;;;;6.00;3.13;;;;;;;;;;8327265;28;20412;-71
2021/03/13 12:57:20;;;;;;;16.23;6.57;;;;;;;;;;8328411;28;20462;-71
2021/03/13 13:01:25;;;;;;;8.25;2.95;;;;;;;;;;8327373;28;20451;-72
2021/03/13 13:05:30;;;;;;;17.67;5.15;;;;;;;;;;8328108;28;20055;-72
2021/03/13 13:09:35;;;;;;;10.95;4.88;;;;;;;;;;8327296;28;20142;-71
2021/03/13 13:13:41;;;;;;;15.02;4.85;;;;;;;;;;8327132;28;20376;-71
2021/03/13 13:17:45;;;;;;;11.65;5.15;;;;;;;;;;8325992;28;20401;-71
2021/03/13 13:21:52;;;;;;;11.98;5.47;;;;;;;;;;8325529;28;20480;-72
2021/03/13 13:25:58;;;;;;;10.30;4.17;;;;;;;;;;8326039;28;20487;-72
2021/03/13 13:30:07;;;;;;;6.60;3.28;;;;;;;;;;8325721;28;20489;-71
2021/03/13 13:34:12;;;;;;;7.45;3.45;;;;;;;;;;8328190;28;20362;-72
2021/03/13 13:38:18;;;;;;;15.32;7.82;;;;;;;;;;8326998;28;20381;-72
2021/03/13 13:42:24;;;;;;;14.98;5.50;;;;;;;;;;8327044;28;20367;-72
2021/03/13 13:46:29;;;;;;;12.80;6.30;;;;;;;;;;8325970;28;20389;-71
2021/03/13 13:50:34;;;;;;;12.57;6.55;;;;;;;;;;8326033;28;20463;-72
2021/03/13 13:54:40;;;;;;;13.60;4.50;;;;;;;;;;8323624;28;20392;-71
2021/03/13 13:58:44;;;;;;;13.30;6.03;;;;;;;;;;8324316;28;20383;-71
2021/03/13 14:02:54;;;;;;;7.45;4.10;;;;;;;;;;8325054;28;20451;-71
2021/03/13 14:06:58;;;;;;;17.70;4.00;;;;;;;;;;8274619;28;20449;-71
2021/03/13 14:11:04;;;;;;;13.23;5.65;;;;;;;;;;8325565;28;20477;-72
2021/03/13 14:15:09;;;;;;;18.55;6.88;;;;;;;;;;8324782;28;20382;-71
2021/03/13 14:19:14;;;;;;;259.20;102.20;;;;;;;;;;8325247;28;20355;-72
2021/03/13 14:23:19;;;;;;;73.35;36.55;;;;;;;;;;8324449;28;20475;-71
2021/03/13 14:27:24;;;;;;;45.80;22.08;;;;;;;;;;8324681;28;20479;-71
2021/03/13 14:31:28;;;;;;;115.75;60.75;;;;;;;;;;8325452;28;20451;-72
2021/03/13 14:35:45;;;;;;;25.33;13.30;;;;;;;;;;8324864;28;20344;-72
2021/03/13 14:39:50;;;;;;;10.60;4.55;;;;;;;;;;8325191;28;20363;-72
2021/03/13 14:43:54;;;;;;;25.73;10.88;;;;;;;;;;8325744;28;20474;-72
2021/03/13 14:47:59;;;;;;;23.70;8.85;;;;;;;;;;8324632;28;20398;-71
2021/03/13 14:52:06;;;;;;;16.55;7.80;;;;;;;;;;8322208;28;20439;-71
2021/03/13 14:56:10;;;;;;;13.25;6.75;;;;;;;;;;8325549;28;20362;-73
2021/03/13 15:00:19;;;;;;;7.07;3.70;;;;;;;;;;8322614;28;20388;-74
2021/03/13 15:04:24;;;;;;;21.90;11.02;;;;;;;;;;8323048;28;20469;-72
2021/03/13 15:08:29;;;;;;;27.65;12.95;;;;;;;;;;8323806;28;20363;-71
2021/03/13 15:12:54;;;;;;;16.10;8.38;;;;;;;;;;8323002;28;20517;-71
2021/03/13 15:16:58;;;;;;;14.30;5.25;;;;;;;;;;8323960;28;20136;-72
2021/03/13 15:21:05;;;;;;;50.30;16.98;;;;;;;;;;8305399;28;20367;-72
2021/03/13 15:25:11;;;;;;;32.00;12.25;;;;;;;;;;8322430;28;20463;-71
2021/03/13 15:29:16;;;;;;;38.65;14.30;;;;;;;;;;8323286;28;20473;-72
2021/03/13 15:33:21;;;;;;;30.60;15.50;;;;;;;;;;8323501;28;20052;-71
2021/03/13 15:37:26;;;;;;;70.38;26.48;;;;;;;;;;8323401;28;20455;-71
2021/03/13 15:41:35;;;;;;;60.80;20.67;;;;;;;;;;8321165;28;20454;-71
2021/03/13 15:45:40;;;;;;;90.13;25.85;;;;;;;;;;8322533;28;20447;-72
2021/03/13 15:49:50;;;;;;;18.90;6.65;;;;;;;;;;8306916;28;20374;-71
2021/03/13 15:53:55;;;;;;;23.67;9.00;;;;;;;;;;8305940;28;20382;-72
2021/03/13 15:58:01;;;;;;;29.48;9.88;;;;;;;;;;8325318;28;20442;-73
2021/03/13 16:02:06;;;;;;;12.50;5.00;;;;;;;;;;8325462;28;20478;-71
2021/03/13 16:06:11;;;;;;;10.63;4.13;;;;;;;;;;8328839;28;20371;-71
2021/03/13 16:10:16;;;;;;;9.18;3.20;;;;;;;;;;8328045;28;20366;-71
2021/03/13 16:14:21;;;;;;;8.68;3.72;;;;;;;;;;8311625;28;20052;-71
2021/03/13 16:18:27;;;;;;;11.98;4.05;;;;;;;;;;8328785;28;20052;-71
2021/03/13 16:22:38;;;;;;;8.60;3.38;;;;;;;;;;8311356;28;20382;-70
2021/03/13 16:26:47;;;;;;;10.40;4.00;;;;;;;;;;8344658;28;20500;-71
2021/03/13 16:31:00;;;;;;;7.55;3.13;;;;;;;;;;8326920;28;20382;-71
2021/03/13 16:35:09;;;;;;;7.93;3.50;;;;;;;;;;8311650;28;20067;-71
2021/03/13 16:39:14;;;;;;;20.75;3.65;;;;;;;;;;8327083;28;20078;-71
2021/03/13 16:43:29;;;;;;;10.07;4.18;;;;;;;;;;8326548;28;20382;-71
2021/03/13 16:47:36;;;;;;;10.68;4.22;;;;;;;;;;8310955;28;20411;-70
2021/03/13 16:51:47;;;;;;;9.95;4.20;;;;;;;;;;8311134;28;20052;-71
2021/03/13 16:55:52;;;;;;;14.05;4.25;;;;;;;;;;8327286;28;20469;-71
2021/03/13 16:59:57;;;;;;;10.38;4.68;;;;;;;;;;8327273;28;20442;-71
2021/03/13 17:04:08;;;;;;;17.27;5.38;;;;;;;;;;8310611;28;20375;-70
2021/03/13 17:08:13;;;;;;;12.10;5.43;;;;;;;;;;8325277;28;20048;-71
2021/03/13 17:12:18;;;;;;;11.55;5.10;;;;;;;;;;8310932;28;20052;-71
2021/03/13 17:16:23;;;;;;;15.68;5.85;;;;;;;;;;8325002;28;20075;-70
2021/03/13 17:20:29;;;;;;;13.45;4.78;;;;;;;;;;8326171;28;20048;-70
2021/03/13 17:24:33;;;;;;;11.20;4.80;;;;;;;;;;8325433;28;20382;-70
2021/03/13 17:28:38;;;;;;;19.02;4.65;;;;;;;;;;8326994;28;20381;-71
2021/03/13 17:32:43;;;;;;;15.80;5.53;;;;;;;;;;8325529;28;20374;-71
2021/03/13 17:36:51;;;;;;;18.73;7.75;;;;;;;;;;8324315;28;20417;-72
2021/03/13 17:40:59;;;;;;;24.00;9.15;;;;;;;;;;8309440;28;20459;-71
2021/03/13 17:45:14;;;;;;;21.08;8.05;;;;;;;;;;8309648;28;20370;-71
2021/03/13 17:49:19;;;;;;;14.20;5.68;;;;;;;;;;8325845;28;20484;-70
2021/03/13 17:53:26;;;;;;;18.38;7.70;;;;;;;;;;8308995;28;20353;-70
2021/03/13 17:57:33;;;;;;;43.40;12.70;;;;;;;;;;8308710;28;20055;-71
2021/03/13 18:01:38;;;;;;;53.50;15.73;;;;;;;;;;8324928;28;20378;-71
2021/03/13 18:05:43;;;;;;;87.82;30.73;;;;;;;;;;8323237;28;20481;-70
2021/03/13 18:09:49;;;;;;;179.35;65.05;;;;;;;;;;8327015;28;20459;-71
2021/03/13 18:13:55;;;;;;;149.05;55.60;;;;;;;;;;8325641;28;20066;-71
2021/03/13 18:18:11;;;;;;;161.57;52.45;;;;;;;;;;8309380;28;20378;-71
2021/03/13 18:22:17;;;;;;;142.57;51.60;;;;;;;;;;8326854;28;20335;-71
2021/03/13 18:26:25;;;;;;;164.10;57.27;;;;;;;;;;8322569;28;20078;-71
2021/03/13 18:30:30;;;;;;;159.90;55.28;;;;;;;;;;8323542;28;20493;-71
2021/03/13 18:34:35;;;;;;;194.57;66.95;;;;;;;;;;8306006;28;20402;-70
2021/03/13 18:39:06;;;;;;;147.80;50.83;;;;;;;;;;8323551;28;20467;-71
2021/03/13 18:43:11;;;;;;;87.22;34.83;;;;;;;;;;8324205;28;20371;-71
2021/03/13 18:47:32;;;;;;;188.98;72.72;;;;;;;;;;8322077;28;20360;-71
2021/03/13 18:51:39;;;;;;;158.45;58.65;;;;;;;;;;8321710;28;20458;-71
2021/03/13 18:55:44;;;;;;;188.68;66.70;;;;;;;;;;8306557;28;20359;-71
2021/03/13 18:59:56;;;;;;;97.03;37.47;;;;;;;;;;8322858;28;20071;-71
2021/03/13 19:04:01;;;;;;;95.47;41.17;;;;;;;;;;8323761;28;20466;-71
2021/03/13 19:08:06;;;;;;;40.15;17.48;;;;;;;;;;8306482;28;20052;-71
2021/03/13 19:12:13;;;;;;;34.72;15.00;;;;;;;;;;8325346;28;20358;-71
2021/03/13 19:16:18;;;;;;;31.90;15.32;;;;;;;;;;8325263;28;20379;-71
2021/03/13 19:20:22;;;;;;;30.48;13.40;;;;;;;;;;8324265;28;20378;-71
2021/03/13 19:24:37;;;;;;;26.33;15.45;;;;;;;;;;8322754;28;20459;-73
2021/03/13 19:28:58;;;;;;;24.13;9.60;;;;;;;;;;8321072;28;20496;-71
2021/03/13 19:33:03;;;;;;;10.88;5.63;;;;;;;;;;8324492;28;20447;-70
2021/03/13 19:37:10;;;;;;;23.92;9.90;;;;;;;;;;8323984;28;20379;-71
2021/03/13 19:41:18;;;;;;;59.65;16.17;;;;;;;;;;8330198;28;20067;-70
2021/03/13 19:45:24;;;;;;;85.10;21.90;;;;;;;;;;8331797;28;20052;-71
2021/03/13 19:49:29;;;;;;;85.65;23.38;;;;;;;;;;8328425;28;20768;-71
2021/03/13 19:53:34;;;;;;;125.18;29.73;;;;;;;;;;8329798;28;20490;-71
2021/03/13 19:57:39;;;;;;;57.67;18.90;;;;;;;;;;8311630;28;20461;-72
2021/03/13 20:01:45;;;;;;;147.35;34.47;;;;;;;;;;8328719;28;20670;-71
2021/03/13 20:05:50;;;;;;;142.43;34.28;;;;;;;;;;8327979;28;20074;-71
2021/03/13 20:09:56;;;;;;;119.47;27.63;;;;;;;;;;8328597;28;20467;-71
2021/03/13 20:14:02;;;;;;;240.07;49.00;;;;;;;;;;8330143;28;20480;-71
2021/03/13 20:18:06;;;;;;;234.60;50.55;;;;;;;;;;8328779;28;20078;-71
2021/03/13 20:22:11;;;;;;;182.25;38.63;;;;;;;;;;8328876;28;20458;-70
2021/03/13 20:26:16;;;;;;;192.77;40.40;;;;;;;;;;8329354;28;20371;-71
2021/03/13 20:30:23;;;;;;;204.13;40.03;;;;;;;;;;8328877;28;20398;-71
2021/03/13 20:34:28;;;;;;;132.85;28.98;;;;;;;;;;8328468;28;20354;-71
2021/03/13 20:38:36;;;;;;;223.50;39.40;;;;;;;;;;8330565;28;20435;-71
2021/03/13 20:42:41;;;;;;;164.03;31.97;;;;;;;;;;8331035;28;20070;-72
2021/03/13 20:46:59;;;;;;;99.82;21.95;;;;;;;;;;8330874;28;20471;-71
2021/03/13 20:51:04;;;;;;;386.92;65.10;;;;;;;;;;8326256;28;20061;-71
2021/03/13 20:55:09;;;;;;;380.05;77.80;;;;;;;;;;8329650;28;20107;-71
2021/03/13 20:59:13;;;;;;;270.70;52.63;;;;;;;;;;8327858;28;20051;-72
2021/03/13 21:03:17;;;;;;;173.95;43.05;;;;;;;;;;8311314;28;20367;-70
2021/03/13 21:07:22;;;;;;;153.55;34.25;;;;;;;;;;8329716;28;20166;-71
2021/03/13 21:11:26;;;;;;;164.63;33.33;;;;;;;;;;8325462;28;20355;-71
2021/03/13 21:15:31;;;;;;;130.90;29.02;;;;;;;;;;8327822;28;20371;-70
2021/03/13 21:19:36;;;;;;;248.70;50.17;;;;;;;;;;8325505;28;20477;-70
2021/03/13 21:23:41;;;;;;;160.60;34.25;;;;;;;;;;8327813;28;20367;-70
2021/03/13 21:27:50;;;;;;;97.40;23.48;;;;;;;;;;8326646;28;20109;-70
2021/03/13 21:31:55;;;;;;;78.50;19.42;;;;;;;;;;8325759;28;20378;-70
2021/03/13 21:36:05;;;;;;;92.20;24.23;;;;;;;;;;8324458;28;20471;-71
2021/03/13 21:40:10;;;;;;;254.82;49.35;;;;;;;;;;8327173;28;20059;-72
2021/03/13 21:44:14;;;;;;;128.57;29.50;;;;;;;;;;8326800;28;20371;-71
2021/03/13 21:48:19;;;;;;;76.97;21.65;;;;;;;;;;8325885;28;20106;-70
2021/03/13 21:52:23;;;;;;;36.00;10.10;;;;;;;;;;8326995;28;20482;-71
2021/03/13 21:56:28;;;;;;;54.00;15.88;;;;;;;;;;8324119;28;20443;-70
2021/03/13 22:00:32;;;;;;;54.60;14.07;;;;;;;;;;8325904;28;20481;-71
2021/03/13 22:04:36;;;;;;;58.70;15.70;;;;;;;;;;8326022;28;20359;-71
2021/03/13 22:08:41;;;;;;;60.70;18.02;;;;;;;;;;8325652;28;20458;-71
2021/03/13 22:12:46;;;;;;;101.90;26.10;;;;;;;;;;8325060;28;20090;-71
2021/03/13 22:16:51;;;;;;;36.75;10.75;;;;;;;;;;8323813;28;20059;-71
2021/03/13 22:20:56;;;;;;;54.22;14.40;;;;;;;;;;8324311;28;20374;-71
2021/03/13 22:25:03;;;;;;;61.47;17.00;;;;;;;;;;8324133;28;20362;-71
2021/03/13 22:29:07;;;;;;;73.43;20.08;;;;;;;;;;8324429;28;20458;-71
2021/03/13 22:33:12;;;;;;;80.55;24.88;;;;;;;;;;8325625;28;20378;-71
2021/03/13 22:37:19;;;;;;;85.47;25.55;;;;;;;;;;8323756;28;20369;-71
2021/03/13 22:41:23;;;;;;;73.53;19.73;;;;;;;;;;8324821;28;20328;-70
2021/03/13 22:45:32;;;;;;;47.25;16.10;;;;;;;;;;8325728;28;20048;-71
2021/03/13 22:49:37;;;;;;;65.30;21.02;;;;;;;;;;8323999;28;20115;-71
2021/03/13 22:53:42;;;;;;;41.08;13.70;;;;;;;;;;8322612;28;20363;-71
2021/03/13 22:57:47;;;;;;;37.13;12.85;;;;;;;;;;8324271;28;20382;-71
2021/03/13 23:01:52;;;;;;;51.65;17.20;;;;;;;;;;8324799;28;20051;-71
2021/03/13 23:05:56;;;;;;;38.53;14.77;;;;;;;;;;8323150;28;20056;-71
2021/03/13 23:10:02;;;;;;;19.50;7.60;;;;;;;;;;8323743;28;20467;-71
2021/03/13 23:14:07;;;;;;;36.83;14.07;;;;;;;;;;8323972;28;20382;-71
2021/03/13 23:18:12;;;;;;;46.65;18.08;;;;;;;;;;8324204;28;20455;-72
2021/03/13 23:22:20;;;;;;;18.85;7.50;;;;;;;;;;8324148;28;20386;-72
2021/03/13 23:26:27;;;;;;;51.03;20.60;;;;;;;;;;8322966;28;20501;-73
2021/03/13 23:30:40;;;;;;;29.38;11.82;;;;;;;;;;8322149;28;20492;-73
2021/03/13 23:34:45;;;;;;;12.07;4.95;;;;;;;;;;8322953;28;20382;-73
2021/03/13 23:38:50;;;;;;;12.27;5.72;;;;;;;;;;8323215;28;20052;-74
2021/03/13 23:42:55;;;;;;;14.27;5.82;;;;;;;;;;8323849;28;20048;-72
2021/03/13 23:47:00;;;;;;;12.27;5.63;;;;;;;;;;8325151;28;20498;-73
2021/03/13 23:51:06;;;;;;;13.27;6.25;;;;;;;;;;8323886;28;20394;-74
2021/03/13 23:55:12;;;;;;;16.40;5.90;;;;;;;;;;8323779;28;20079;-72
2021/03/13 23:59:16;;;;;;;29.20;11.55;;;;;;;;;;8320818;28;20417;-73
